sensor_id;sensor_type;location;lat;lon;timestamp;P1;durP1;ratioP1;P2;durP2;ratioP2
12725;SDS011;6427;49.754;6.106;2022-09-17T00:01:48;2.67;;;1.77;;
12725;SDS011;6427;49.754;6.106;2022-09-17T00:04:16;2.37;;;2.10;;
12725;SDS011;6427;49.754;6.106;2022-09-17T00:06:43;3.63;;;2.00;;
12725;SDS011;6427;49.754;6.106;2022-09-17T00:09:11;2.33;;;2.13;;
12725;SDS011;6427;49.754;6.106;2022-09-17T00:11:39;2.50;;;2.20;;
12725;SDS011;6427;49.754;6.106;2022-09-17T00:14:07;2.77;;;2.30;;
12725;SDS011;6427;49.754;6.106;2022-09-17T00:16:38;5.93;;;1.87;;
12725;SDS011;6427;49.754;6.106;2022-09-17T00:19:05;2.73;;;1.80;;
12725;SDS011;6427;49.754;6.106;2022-09-17T00:21:32;4.07;;;1.97;;
12725;SDS011;6427;49.754;6.106;2022-09-17T00:24:01;2.57;;;1.67;;
12725;SDS011;6427;49.754;6.106;2022-09-17T00:26:28;2.90;;;1.90;;
12725;SDS011;6427;49.754;6.106;2022-09-17T00:28:56;5.00;;;2.80;;
12725;SDS011;6427;49.754;6.106;2022-09-17T00:31:23;5.20;;;2.50;;
12725;SDS011;6427;49.754;6.106;2022-09-17T00:33:51;4.43;;;2.00;;
12725;SDS011;6427;49.754;6.106;2022-09-17T00:36:19;3.77;;;2.13;;
12725;SDS011;6427;49.754;6.106;2022-09-17T00:38:48;4.23;;;1.93;;
12725;SDS011;6427;49.754;6.106;2022-09-17T00:41:15;6.77;;;2.27;;
12725;SDS011;6427;49.754;6.106;2022-09-17T00:43:44;4.50;;;2.03;;
12725;SDS011;6427;49.754;6.106;2022-09-17T00:46:16;3.07;;;1.80;;
12725;SDS011;6427;49.754;6.106;2022-09-17T00:48:39;3.43;;;1.77;;
12725;SDS011;6427;49.754;6.106;2022-09-17T00:51:07;2.93;;;2.20;;
12725;SDS011;6427;49.754;6.106;2022-09-17T00:53:34;5.07;;;3.00;;
12725;SDS011;6427;49.754;6.106;2022-09-17T00:56:04;3.93;;;2.50;;
12725;SDS011;6427;49.754;6.106;2022-09-17T00:58:33;3.53;;;2.27;;
12725;SDS011;6427;49.754;6.106;2022-09-17T01:01:01;3.90;;;2.27;;
12725;SDS011;6427;49.754;6.106;2022-09-17T01:03:29;2.97;;;2.30;;
12725;SDS011;6427;49.754;6.106;2022-09-17T01:06:12;2.50;;;2.23;;
12725;SDS011;6427;49.754;6.106;2022-09-17T01:08:53;3.77;;;2.47;;
12725;SDS011;6427;49.754;6.106;2022-09-17T01:11:29;3.83;;;2.30;;
12725;SDS011;6427;49.754;6.106;2022-09-17T01:14:02;3.93;;;2.30;;
12725;SDS011;6427;49.754;6.106;2022-09-17T01:25:13;5.10;;;2.00;;
12725;SDS011;6427;49.754;6.106;2022-09-17T01:27:44;4.80;;;2.27;;
12725;SDS011;6427;49.754;6.106;2022-09-17T01:32:57;2.57;;;1.87;;
12725;SDS011;6427;49.754;6.106;2022-09-17T01:35:32;3.50;;;1.90;;
12725;SDS011;6427;49.754;6.106;2022-09-17T01:43:21;2.27;;;1.70;;
12725;SDS011;6427;49.754;6.106;2022-09-17T01:45:51;2.80;;;2.03;;
12725;SDS011;6427;49.754;6.106;2022-09-17T01:48:40;3.37;;;1.83;;
12725;SDS011;6427;49.754;6.106;2022-09-17T01:53:23;4.60;;;1.70;;
12725;SDS011;6427;49.754;6.106;2022-09-17T01:55:55;3.77;;;1.73;;
12725;SDS011;6427;49.754;6.106;2022-09-17T01:58:25;3.93;;;1.70;;
12725;SDS011;6427;49.754;6.106;2022-09-17T02:00:55;3.40;;;1.60;;
12725;SDS011;6427;49.754;6.106;2022-09-17T02:03:26;3.27;;;1.63;;
12725;SDS011;6427;49.754;6.106;2022-09-17T02:05:53;4.80;;;1.93;;
12725;SDS011;6427;49.754;6.106;2022-09-17T02:08:26;2.20;;;1.67;;
12725;SDS011;6427;49.754;6.106;2022-09-17T02:11:08;4.03;;;1.73;;
12725;SDS011;6427;49.754;6.106;2022-09-17T02:16:15;5.10;;;1.70;;
12725;SDS011;6427;49.754;6.106;2022-09-17T02:26:55;9.27;;;2.30;;
12725;SDS011;6427;49.754;6.106;2022-09-17T02:29:24;4.07;;;1.67;;
12725;SDS011;6427;49.754;6.106;2022-09-17T02:31:50;5.47;;;2.20;;
12725;SDS011;6427;49.754;6.106;2022-09-17T02:34:18;4.87;;;2.30;;
12725;SDS011;6427;49.754;6.106;2022-09-17T02:36:45;5.07;;;2.23;;
12725;SDS011;6427;49.754;6.106;2022-09-17T02:39:13;6.23;;;2.03;;
12725;SDS011;6427;49.754;6.106;2022-09-17T02:41:52;4.90;;;1.90;;
12725;SDS011;6427;49.754;6.106;2022-09-17T02:44:20;5.67;;;1.90;;
12725;SDS011;6427;49.754;6.106;2022-09-17T02:52:16;4.13;;;1.90;;
12725;SDS011;6427;49.754;6.106;2022-09-17T02:54:48;3.73;;;2.20;;
12725;SDS011;6427;49.754;6.106;2022-09-17T02:57:21;3.80;;;1.70;;
12725;SDS011;6427;49.754;6.106;2022-09-17T03:02:50;5.60;;;1.73;;
12725;SDS011;6427;49.754;6.106;2022-09-17T03:05:17;4.60;;;1.87;;
12725;SDS011;6427;49.754;6.106;2022-09-17T03:07:44;3.70;;;2.00;;
12725;SDS011;6427;49.754;6.106;2022-09-17T03:10:11;4.47;;;1.70;;
12725;SDS011;6427;49.754;6.106;2022-09-17T03:12:39;3.43;;;1.53;;
12725;SDS011;6427;49.754;6.106;2022-09-17T03:15:06;6.07;;;1.80;;
12725;SDS011;6427;49.754;6.106;2022-09-17T03:17:34;6.30;;;2.47;;
12725;SDS011;6427;49.754;6.106;2022-09-17T03:20:02;6.53;;;2.45;;
12725;SDS011;6427;49.754;6.106;2022-09-17T03:22:29;5.50;;;2.47;;
12725;SDS011;6427;49.754;6.106;2022-09-17T03:24:57;7.50;;;2.30;;
12725;SDS011;6427;49.754;6.106;2022-09-17T03:27:24;4.20;;;2.20;;
12725;SDS011;6427;49.754;6.106;2022-09-17T03:29:52;7.53;;;2.47;;
12725;SDS011;6427;49.754;6.106;2022-09-17T03:32:20;7.13;;;2.40;;
12725;SDS011;6427;49.754;6.106;2022-09-17T03:34:48;5.23;;;2.40;;
12725;SDS011;6427;49.754;6.106;2022-09-17T03:37:16;6.97;;;2.43;;
12725;SDS011;6427;49.754;6.106;2022-09-17T03:39:43;5.93;;;2.87;;
12725;SDS011;6427;49.754;6.106;2022-09-17T03:42:11;5.73;;;2.70;;
12725;SDS011;6427;49.754;6.106;2022-09-17T03:44:38;5.67;;;2.73;;
12725;SDS011;6427;49.754;6.106;2022-09-17T03:47:06;7.17;;;2.90;;
12725;SDS011;6427;49.754;6.106;2022-09-17T03:49:33;7.63;;;2.40;;
12725;SDS011;6427;49.754;6.106;2022-09-17T03:52:01;8.27;;;3.00;;
12725;SDS011;6427;49.754;6.106;2022-09-17T03:54:29;4.63;;;2.80;;
12725;SDS011;6427;49.754;6.106;2022-09-17T03:56:56;7.00;;;2.73;;
12725;SDS011;6427;49.754;6.106;2022-09-17T03:59:24;11.17;;;3.23;;
12725;SDS011;6427;49.754;6.106;2022-09-17T04:01:51;6.03;;;3.20;;
12725;SDS011;6427;49.754;6.106;2022-09-17T04:04:19;8.15;;;4.25;;
12725;SDS011;6427;49.754;6.106;2022-09-17T04:06:46;9.13;;;3.90;;
12725;SDS011;6427;49.754;6.106;2022-09-17T04:09:14;5.17;;;3.20;;
12725;SDS011;6427;49.754;6.106;2022-09-17T04:11:42;10.93;;;3.77;;
12725;SDS011;6427;49.754;6.106;2022-09-17T04:14:10;6.00;;;3.53;;
12725;SDS011;6427;49.754;6.106;2022-09-17T04:16:38;5.03;;;3.13;;
12725;SDS011;6427;49.754;6.106;2022-09-17T04:19:06;4.60;;;3.17;;
12725;SDS011;6427;49.754;6.106;2022-09-17T04:21:33;5.50;;;3.93;;
12725;SDS011;6427;49.754;6.106;2022-09-17T04:24:01;9.73;;;3.30;;
12725;SDS011;6427;49.754;6.106;2022-09-17T04:26:29;5.47;;;3.20;;
12725;SDS011;6427;49.754;6.106;2022-09-17T04:28:57;9.60;;;2.87;;
12725;SDS011;6427;49.754;6.106;2022-09-17T04:31:24;7.27;;;2.93;;
12725;SDS011;6427;49.754;6.106;2022-09-17T04:33:52;8.27;;;2.77;;
12725;SDS011;6427;49.754;6.106;2022-09-17T04:36:20;5.50;;;2.47;;
12725;SDS011;6427;49.754;6.106;2022-09-17T04:38:49;8.73;;;2.37;;
12725;SDS011;6427;49.754;6.106;2022-09-17T04:41:19;6.37;;;2.10;;
12725;SDS011;6427;49.754;6.106;2022-09-17T04:43:47;7.40;;;2.10;;
12725;SDS011;6427;49.754;6.106;2022-09-17T04:46:14;6.50;;;2.25;;
12725;SDS011;6427;49.754;6.106;2022-09-17T04:48:42;4.90;;;1.60;;
12725;SDS011;6427;49.754;6.106;2022-09-17T04:51:11;6.00;;;2.00;;
12725;SDS011;6427;49.754;6.106;2022-09-17T04:53:38;6.57;;;2.25;;
12725;SDS011;6427;49.754;6.106;2022-09-17T04:56:06;3.87;;;1.90;;
12725;SDS011;6427;49.754;6.106;2022-09-17T04:58:34;5.77;;;2.20;;
12725;SDS011;6427;49.754;6.106;2022-09-17T05:01:02;3.47;;;1.60;;
12725;SDS011;6427;49.754;6.106;2022-09-17T05:03:29;4.07;;;1.77;;
12725;SDS011;6427;49.754;6.106;2022-09-17T05:05:57;4.03;;;1.70;;
12725;SDS011;6427;49.754;6.106;2022-09-17T05:08:24;4.23;;;1.70;;
12725;SDS011;6427;49.754;6.106;2022-09-17T05:10:52;6.53;;;1.83;;
12725;SDS011;6427;49.754;6.106;2022-09-17T05:13:20;5.77;;;1.87;;
12725;SDS011;6427;49.754;6.106;2022-09-17T05:15:48;4.27;;;1.60;;
12725;SDS011;6427;49.754;6.106;2022-09-17T05:18:15;5.60;;;1.70;;
12725;SDS011;6427;49.754;6.106;2022-09-17T05:20:43;3.57;;;1.70;;
12725;SDS011;6427;49.754;6.106;2022-09-17T05:23:10;4.23;;;1.80;;
12725;SDS011;6427;49.754;6.106;2022-09-17T05:25:39;4.13;;;1.70;;
12725;SDS011;6427;49.754;6.106;2022-09-17T05:28:07;4.37;;;1.43;;
12725;SDS011;6427;49.754;6.106;2022-09-17T05:30:34;7.63;;;1.90;;
12725;SDS011;6427;49.754;6.106;2022-09-17T05:33:04;5.33;;;1.87;;
12725;SDS011;6427;49.754;6.106;2022-09-17T05:35:31;5.47;;;1.90;;
12725;SDS011;6427;49.754;6.106;2022-09-17T05:37:59;2.97;;;1.60;;
12725;SDS011;6427;49.754;6.106;2022-09-17T05:40:26;4.87;;;1.53;;
12725;SDS011;6427;49.754;6.106;2022-09-17T05:43:01;3.40;;;1.50;;
12725;SDS011;6427;49.754;6.106;2022-09-17T05:45:24;2.80;;;1.40;;
12725;SDS011;6427;49.754;6.106;2022-09-17T05:47:59;4.68;;;2.00;;
12725;SDS011;6427;49.754;6.106;2022-09-17T05:50:23;4.70;;;1.87;;
12725;SDS011;6427;49.754;6.106;2022-09-17T05:52:50;4.60;;;1.70;;
12725;SDS011;6427;49.754;6.106;2022-09-17T05:55:19;4.87;;;1.67;;
12725;SDS011;6427;49.754;6.106;2022-09-17T05:57:46;4.57;;;1.70;;
12725;SDS011;6427;49.754;6.106;2022-09-17T06:00:13;2.73;;;1.50;;
12725;SDS011;6427;49.754;6.106;2022-09-17T06:02:41;4.73;;;1.60;;
12725;SDS011;6427;49.754;6.106;2022-09-17T06:05:09;5.80;;;1.50;;
12725;SDS011;6427;49.754;6.106;2022-09-17T06:07:37;4.27;;;1.70;;
12725;SDS011;6427;49.754;6.106;2022-09-17T06:10:05;2.43;;;1.63;;
12725;SDS011;6427;49.754;6.106;2022-09-17T06:12:33;3.07;;;1.57;;
12725;SDS011;6427;49.754;6.106;2022-09-17T06:15:01;3.27;;;1.27;;
12725;SDS011;6427;49.754;6.106;2022-09-17T06:17:28;3.20;;;1.90;;
12725;SDS011;6427;49.754;6.106;2022-09-17T06:19:56;6.25;;;3.62;;
12725;SDS011;6427;49.754;6.106;2022-09-17T06:22:24;4.30;;;2.63;;
12725;SDS011;6427;49.754;6.106;2022-09-17T06:24:52;4.53;;;1.40;;
12725;SDS011;6427;49.754;6.106;2022-09-17T06:27:20;2.87;;;1.40;;
12725;SDS011;6427;49.754;6.106;2022-09-17T06:29:47;3.43;;;1.10;;
12725;SDS011;6427;49.754;6.106;2022-09-17T06:32:15;2.83;;;1.50;;
12725;SDS011;6427;49.754;6.106;2022-09-17T06:34:42;2.47;;;1.20;;
12725;SDS011;6427;49.754;6.106;2022-09-17T06:37:11;3.07;;;1.33;;
12725;SDS011;6427;49.754;6.106;2022-09-17T06:39:38;3.93;;;1.50;;
12725;SDS011;6427;49.754;6.106;2022-09-17T06:42:06;3.33;;;1.20;;
12725;SDS011;6427;49.754;6.106;2022-09-17T06:44:33;4.40;;;1.20;;
12725;SDS011;6427;49.754;6.106;2022-09-17T06:47:02;4.20;;;1.27;;
12725;SDS011;6427;49.754;6.106;2022-09-17T06:49:29;7.00;;;1.50;;
12725;SDS011;6427;49.754;6.106;2022-09-17T06:51:57;4.53;;;1.23;;
12725;SDS011;6427;49.754;6.106;2022-09-17T06:54:24;5.03;;;1.40;;
12725;SDS011;6427;49.754;6.106;2022-09-17T06:56:52;4.07;;;1.40;;
12725;SDS011;6427;49.754;6.106;2022-09-17T06:59:19;3.80;;;1.40;;
12725;SDS011;6427;49.754;6.106;2022-09-17T07:01:47;3.37;;;1.57;;
12725;SDS011;6427;49.754;6.106;2022-09-17T07:04:14;3.17;;;1.50;;
12725;SDS011;6427;49.754;6.106;2022-09-17T07:06:42;1.53;;;1.40;;
12725;SDS011;6427;49.754;6.106;2022-09-17T07:09:10;5.53;;;1.57;;
12725;SDS011;6427;49.754;6.106;2022-09-17T07:11:37;3.87;;;1.77;;
12725;SDS011;6427;49.754;6.106;2022-09-17T07:14:05;4.07;;;1.70;;
12725;SDS011;6427;49.754;6.106;2022-09-17T07:16:32;3.07;;;1.40;;
12725;SDS011;6427;49.754;6.106;2022-09-17T07:19:00;7.60;;;1.70;;
12725;SDS011;6427;49.754;6.106;2022-09-17T07:21:27;6.05;;;2.03;;
12725;SDS011;6427;49.754;6.106;2022-09-17T07:23:55;5.93;;;2.40;;
12725;SDS011;6427;49.754;6.106;2022-09-17T07:26:22;6.03;;;2.10;;
12725;SDS011;6427;49.754;6.106;2022-09-17T07:28:50;5.20;;;2.20;;
12725;SDS011;6427;49.754;6.106;2022-09-17T07:31:17;5.93;;;1.80;;
12725;SDS011;6427;49.754;6.106;2022-09-17T07:33:46;4.50;;;1.60;;
12725;SDS011;6427;49.754;6.106;2022-09-17T07:36:14;5.97;;;1.80;;
12725;SDS011;6427;49.754;6.106;2022-09-17T07:38:42;6.40;;;1.83;;
12725;SDS011;6427;49.754;6.106;2022-09-17T07:41:10;7.83;;;1.63;;
12725;SDS011;6427;49.754;6.106;2022-09-17T07:43:37;9.05;;;2.20;;
12725;SDS011;6427;49.754;6.106;2022-09-17T07:46:05;7.73;;;2.10;;
12725;SDS011;6427;49.754;6.106;2022-09-17T07:48:32;4.27;;;1.83;;
12725;SDS011;6427;49.754;6.106;2022-09-17T07:51:00;7.33;;;2.20;;
12725;SDS011;6427;49.754;6.106;2022-09-17T07:53:27;6.40;;;1.50;;
12725;SDS011;6427;49.754;6.106;2022-09-17T07:55:56;7.60;;;2.17;;
12725;SDS011;6427;49.754;6.106;2022-09-17T07:58:32;5.80;;;1.80;;
12725;SDS011;6427;49.754;6.106;2022-09-17T08:01:03;5.13;;;1.60;;
12725;SDS011;6427;49.754;6.106;2022-09-17T08:03:26;6.97;;;2.00;;
12725;SDS011;6427;49.754;6.106;2022-09-17T08:05:53;8.60;;;2.17;;
12725;SDS011;6427;49.754;6.106;2022-09-17T08:08:21;5.60;;;2.35;;
12725;SDS011;6427;49.754;6.106;2022-09-17T08:10:48;7.60;;;1.80;;
12725;SDS011;6427;49.754;6.106;2022-09-17T08:13:16;11.70;;;2.17;;
12725;SDS011;6427;49.754;6.106;2022-09-17T08:15:44;7.87;;;1.73;;
12725;SDS011;6427;49.754;6.106;2022-09-17T08:18:14;5.87;;;1.90;;
12725;SDS011;6427;49.754;6.106;2022-09-17T08:20:40;9.87;;;2.10;;
12725;SDS011;6427;49.754;6.106;2022-09-17T08:23:07;5.10;;;1.90;;
12725;SDS011;6427;49.754;6.106;2022-09-17T08:25:35;6.17;;;1.90;;
12725;SDS011;6427;49.754;6.106;2022-09-17T08:28:02;8.33;;;2.33;;
12725;SDS011;6427;49.754;6.106;2022-09-17T08:30:30;6.47;;;2.00;;
12725;SDS011;6427;49.754;6.106;2022-09-17T08:32:57;8.37;;;2.00;;
12725;SDS011;6427;49.754;6.106;2022-09-17T08:35:26;7.07;;;2.13;;
12725;SDS011;6427;49.754;6.106;2022-09-17T08:37:53;7.83;;;1.90;;
12725;SDS011;6427;49.754;6.106;2022-09-17T08:40:21;8.33;;;2.03;;
12725;SDS011;6427;49.754;6.106;2022-09-17T08:42:50;9.85;;;2.80;;
12725;SDS011;6427;49.754;6.106;2022-09-17T08:45:19;9.07;;;2.60;;
12725;SDS011;6427;49.754;6.106;2022-09-17T08:47:46;10.20;;;2.73;;
12725;SDS011;6427;49.754;6.106;2022-09-17T08:50:16;5.80;;;2.40;;
12725;SDS011;6427;49.754;6.106;2022-09-17T08:52:52;10.73;;;3.45;;
12725;SDS011;6427;49.754;6.106;2022-09-17T08:55:27;13.17;;;2.83;;
12725;SDS011;6427;49.754;6.106;2022-09-17T09:00:35;8.53;;;2.50;;
12725;SDS011;6427;49.754;6.106;2022-09-17T09:03:12;11.63;;;2.73;;
12725;SDS011;6427;49.754;6.106;2022-09-17T09:05:42;13.30;;;2.60;;
12725;SDS011;6427;49.754;6.106;2022-09-17T09:10:57;6.03;;;2.20;;
12725;SDS011;6427;49.754;6.106;2022-09-17T09:13:21;9.05;;;1.83;;
12725;SDS011;6427;49.754;6.106;2022-09-17T09:15:53;6.97;;;1.67;;
12725;SDS011;6427;49.754;6.106;2022-09-17T09:18:22;7.53;;;1.87;;
12725;SDS011;6427;49.754;6.106;2022-09-17T09:21:13;5.27;;;1.97;;
12725;SDS011;6427;49.754;6.106;2022-09-17T09:24:02;6.17;;;1.73;;
12725;SDS011;6427;49.754;6.106;2022-09-17T09:26:40;6.93;;;1.53;;
12725;SDS011;6427;49.754;6.106;2022-09-17T09:31:59;5.33;;;1.90;;
12725;SDS011;6427;49.754;6.106;2022-09-17T09:34:19;8.33;;;1.57;;
12725;SDS011;6427;49.754;6.106;2022-09-17T09:36:47;4.83;;;1.47;;
12725;SDS011;6427;49.754;6.106;2022-09-17T09:39:19;6.20;;;1.80;;
12725;SDS011;6427;49.754;6.106;2022-09-17T09:41:44;8.80;;;1.57;;
12725;SDS011;6427;49.754;6.106;2022-09-17T09:44:11;6.35;;;2.08;;
12725;SDS011;6427;49.754;6.106;2022-09-17T09:52:01;3.73;;;1.83;;
12725;SDS011;6427;49.754;6.106;2022-09-17T09:57:12;5.07;;;1.93;;
12725;SDS011;6427;49.754;6.106;2022-09-17T09:59:39;7.97;;;2.10;;
12725;SDS011;6427;49.754;6.106;2022-09-17T10:02:09;3.90;;;1.60;;
12725;SDS011;6427;49.754;6.106;2022-09-17T10:04:37;7.20;;;1.70;;
12725;SDS011;6427;49.754;6.106;2022-09-17T10:07:05;9.50;;;1.57;;
12725;SDS011;6427;49.754;6.106;2022-09-17T10:09:33;5.73;;;1.87;;
12725;SDS011;6427;49.754;6.106;2022-09-17T10:12:02;5.03;;;1.70;;
12725;SDS011;6427;49.754;6.106;2022-09-17T10:14:37;13.97;;;2.60;;
12725;SDS011;6427;49.754;6.106;2022-09-17T10:17:23;4.67;;;2.17;;
12725;SDS011;6427;49.754;6.106;2022-09-17T10:25:04;5.60;;;1.37;;
12725;SDS011;6427;49.754;6.106;2022-09-17T10:27:31;7.90;;;1.50;;
12725;SDS011;6427;49.754;6.106;2022-09-17T10:32:36;5.17;;;0.90;;
12725;SDS011;6427;49.754;6.106;2022-09-17T10:35:04;4.87;;;1.10;;
12725;SDS011;6427;49.754;6.106;2022-09-17T10:37:35;4.15;;;1.15;;
12725;SDS011;6427;49.754;6.106;2022-09-17T10:40:01;4.35;;;1.37;;
12725;SDS011;6427;49.754;6.106;2022-09-17T10:42:28;4.30;;;1.00;;
12725;SDS011;6427;49.754;6.106;2022-09-17T10:44:57;5.28;;;0.90;;
12725;SDS011;6427;49.754;6.106;2022-09-17T10:47:24;4.20;;;0.80;;
12725;SDS011;6427;49.754;6.106;2022-09-17T10:50:14;1.00;;;0.60;;
12725;SDS011;6427;49.754;6.106;2022-09-17T10:52:34;6.57;;;0.77;;
12725;SDS011;6427;49.754;6.106;2022-09-17T10:55:05;3.83;;;1.00;;
12725;SDS011;6427;49.754;6.106;2022-09-17T11:00:11;4.33;;;0.90;;
12725;SDS011;6427;49.754;6.106;2022-09-17T11:08:00;3.07;;;0.50;;
12725;SDS011;6427;49.754;6.106;2022-09-17T11:13:01;2.63;;;0.60;;
12725;SDS011;6427;49.754;6.106;2022-09-17T11:15:34;2.57;;;0.60;;
12725;SDS011;6427;49.754;6.106;2022-09-17T11:18:04;3.37;;;0.77;;
12725;SDS011;6427;49.754;6.106;2022-09-17T11:21:08;2.93;;;0.90;;
12725;SDS011;6427;49.754;6.106;2022-09-17T11:23:48;2.93;;;0.77;;
12725;SDS011;6427;49.754;6.106;2022-09-17T11:26:29;2.20;;;0.37;;
12725;SDS011;6427;49.754;6.106;2022-09-17T11:29:14;2.03;;;0.40;;
12725;SDS011;6427;49.754;6.106;2022-09-17T11:31:37;0.63;;;0.33;;
12725;SDS011;6427;49.754;6.106;2022-09-17T11:34:18;2.70;;;0.50;;
12725;SDS011;6427;49.754;6.106;2022-09-17T11:36:38;3.03;;;0.53;;
12725;SDS011;6427;49.754;6.106;2022-09-17T11:39:08;2.37;;;0.50;;
12725;SDS011;6427;49.754;6.106;2022-09-17T11:41:32;1.67;;;0.50;;
12725;SDS011;6427;49.754;6.106;2022-09-17T11:44:11;1.53;;;0.40;;
12725;SDS011;6427;49.754;6.106;2022-09-17T11:49:26;1.97;;;0.50;;
12725;SDS011;6427;49.754;6.106;2022-09-17T11:52:05;0.93;;;0.30;;
12725;SDS011;6427;49.754;6.106;2022-09-17T11:54:39;2.33;;;0.50;;
12725;SDS011;6427;49.754;6.106;2022-09-17T11:57:12;3.07;;;0.50;;
12725;SDS011;6427;49.754;6.106;2022-09-17T11:59:54;3.97;;;0.70;;
12725;SDS011;6427;49.754;6.106;2022-09-17T12:05:15;3.50;;;0.70;;
12725;SDS011;6427;49.754;6.106;2022-09-17T12:16:24;2.03;;;0.60;;
12725;SDS011;6427;49.754;6.106;2022-09-17T12:19:03;1.60;;;0.40;;
12725;SDS011;6427;49.754;6.106;2022-09-17T12:21:50;3.03;;;0.50;;
12725;SDS011;6427;49.754;6.106;2022-09-17T12:24:22;0.47;;;0.30;;
12725;SDS011;6427;49.754;6.106;2022-09-17T12:35:29;4.37;;;0.40;;
12725;SDS011;6427;49.754;6.106;2022-09-17T12:38:12;2.07;;;0.50;;
12725;SDS011;6427;49.754;6.106;2022-09-17T12:40:56;4.15;;;0.62;;
12725;SDS011;6427;49.754;6.106;2022-09-17T12:45:56;1.60;;;0.77;;
12725;SDS011;6427;49.754;6.106;2022-09-17T12:48:46;4.27;;;1.20;;
12725;SDS011;6427;49.754;6.106;2022-09-17T12:54:03;2.90;;;0.60;;
12725;SDS011;6427;49.754;6.106;2022-09-17T13:01:44;3.45;;;0.73;;
12725;SDS011;6427;49.754;6.106;2022-09-17T13:07:05;3.70;;;0.40;;
12725;SDS011;6427;49.754;6.106;2022-09-17T13:09:36;1.40;;;0.47;;
12725;SDS011;6427;49.754;6.106;2022-09-17T13:12:16;3.23;;;0.30;;
12725;SDS011;6427;49.754;6.106;2022-09-17T13:15:05;2.00;;;0.30;;
12725;SDS011;6427;49.754;6.106;2022-09-17T13:17:38;0.20;;;0.20;;
12725;SDS011;6427;49.754;6.106;2022-09-17T13:20:20;1.60;;;0.30;;
12725;SDS011;6427;49.754;6.106;2022-09-17T13:22:53;0.80;;;0.40;;
12725;SDS011;6427;49.754;6.106;2022-09-17T13:25:20;2.53;;;0.43;;
12725;SDS011;6427;49.754;6.106;2022-09-17T13:27:48;1.13;;;0.43;;
12725;SDS011;6427;49.754;6.106;2022-09-17T13:30:15;0.53;;;0.40;;
12725;SDS011;6427;49.754;6.106;2022-09-17T13:32:44;0.63;;;0.40;;
12725;SDS011;6427;49.754;6.106;2022-09-17T13:38:01;0.90;;;0.23;;
12725;SDS011;6427;49.754;6.106;2022-09-17T13:40:34;0.83;;;0.30;;
12725;SDS011;6427;49.754;6.106;2022-09-17T13:45:31;1.10;;;0.27;;
12725;SDS011;6427;49.754;6.106;2022-09-17T13:48:08;2.33;;;0.30;;
12725;SDS011;6427;49.754;6.106;2022-09-17T13:50:37;0.40;;;0.20;;
12725;SDS011;6427;49.754;6.106;2022-09-17T13:53:07;1.13;;;0.10;;
12725;SDS011;6427;49.754;6.106;2022-09-17T13:55:38;0.43;;;0.27;;
12725;SDS011;6427;49.754;6.106;2022-09-17T13:58:02;1.67;;;0.35;;
12725;SDS011;6427;49.754;6.106;2022-09-17T14:13:54;4.03;;;0.27;;
12725;SDS011;6427;49.754;6.106;2022-09-17T14:21:26;1.53;;;0.30;;
12725;SDS011;6427;49.754;6.106;2022-09-17T14:23:53;0.43;;;0.10;;
12725;SDS011;6427;49.754;6.106;2022-09-17T14:26:27;0.93;;;0.20;;
12725;SDS011;6427;49.754;6.106;2022-09-17T14:29:23;1.63;;;0.37;;
12725;SDS011;6427;49.754;6.106;2022-09-17T14:31:49;2.57;;;0.20;;
12725;SDS011;6427;49.754;6.106;2022-09-17T14:34:21;1.13;;;0.20;;
12725;SDS011;6427;49.754;6.106;2022-09-17T14:36:45;1.70;;;0.22;;
12725;SDS011;6427;49.754;6.106;2022-09-17T14:39:20;0.50;;;0.10;;
12725;SDS011;6427;49.754;6.106;2022-09-17T14:41:46;0.40;;;0.30;;
12725;SDS011;6427;49.754;6.106;2022-09-17T14:44:17;0.47;;;0.13;;
12725;SDS011;6427;49.754;6.106;2022-09-17T14:49:25;1.33;;;0.40;;
12725;SDS011;6427;49.754;6.106;2022-09-17T14:51:53;1.40;;;0.40;;
12725;SDS011;6427;49.754;6.106;2022-09-17T14:54:24;1.60;;;0.20;;
12725;SDS011;6427;49.754;6.106;2022-09-17T14:57:02;0.43;;;0.30;;
12725;SDS011;6427;49.754;6.106;2022-09-17T15:02:33;1.47;;;0.40;;
12725;SDS011;6427;49.754;6.106;2022-09-17T15:05:00;1.57;;;0.20;;
12725;SDS011;6427;49.754;6.106;2022-09-17T15:07:27;2.20;;;0.37;;
12725;SDS011;6427;49.754;6.106;2022-09-17T15:10:05;4.00;;;0.40;;
12725;SDS011;6427;49.754;6.106;2022-09-17T15:12:25;0.83;;;0.17;;
12725;SDS011;6427;49.754;6.106;2022-09-17T15:14:50;1.37;;;0.40;;
12725;SDS011;6427;49.754;6.106;2022-09-17T15:17:18;1.37;;;0.30;;
12725;SDS011;6427;49.754;6.106;2022-09-17T15:19:50;1.50;;;0.37;;
12725;SDS011;6427;49.754;6.106;2022-09-17T15:22:15;1.10;;;0.30;;
12725;SDS011;6427;49.754;6.106;2022-09-17T15:24:45;1.00;;;0.30;;
12725;SDS011;6427;49.754;6.106;2022-09-17T15:27:12;3.50;;;0.60;;
12725;SDS011;6427;49.754;6.106;2022-09-17T15:29:40;1.10;;;0.60;;
12725;SDS011;6427;49.754;6.106;2022-09-17T15:32:07;2.20;;;0.43;;
12725;SDS011;6427;49.754;6.106;2022-09-17T15:34:34;2.50;;;0.30;;
12725;SDS011;6427;49.754;6.106;2022-09-17T15:39:47;3.10;;;0.50;;
12725;SDS011;6427;49.754;6.106;2022-09-17T15:42:25;1.53;;;0.50;;
12725;SDS011;6427;49.754;6.106;2022-09-17T15:45:39;2.50;;;0.40;;
12725;SDS011;6427;49.754;6.106;2022-09-17T15:50:23;3.50;;;0.57;;
12725;SDS011;6427;49.754;6.106;2022-09-17T15:55:35;1.27;;;0.30;;
12725;SDS011;6427;49.754;6.106;2022-09-17T15:58:18;2.83;;;0.50;;
12725;SDS011;6427;49.754;6.106;2022-09-17T16:00:44;1.83;;;0.50;;
12725;SDS011;6427;49.754;6.106;2022-09-17T16:05:57;4.00;;;1.53;;
12725;SDS011;6427;49.754;6.106;2022-09-17T16:08:25;6.83;;;1.67;;
12725;SDS011;6427;49.754;6.106;2022-09-17T16:10:53;4.30;;;0.88;;
12725;SDS011;6427;49.754;6.106;2022-09-17T16:13:21;3.40;;;0.80;;
12725;SDS011;6427;49.754;6.106;2022-09-17T16:15:49;4.13;;;1.20;;
12725;SDS011;6427;49.754;6.106;2022-09-17T16:18:16;5.30;;;1.30;;
12725;SDS011;6427;49.754;6.106;2022-09-17T16:20:44;3.03;;;0.97;;
12725;SDS011;6427;49.754;6.106;2022-09-17T16:23:11;3.53;;;0.63;;
12725;SDS011;6427;49.754;6.106;2022-09-17T16:25:40;3.30;;;0.97;;
12725;SDS011;6427;49.754;6.106;2022-09-17T16:28:12;2.40;;;0.60;;
12725;SDS011;6427;49.754;6.106;2022-09-17T16:30:35;4.40;;;0.80;;
12725;SDS011;6427;49.754;6.106;2022-09-17T16:33:03;5.77;;;0.90;;
12725;SDS011;6427;49.754;6.106;2022-09-17T16:35:31;5.83;;;0.90;;
12725;SDS011;6427;49.754;6.106;2022-09-17T16:37:59;7.57;;;1.25;;
12725;SDS011;6427;49.754;6.106;2022-09-17T16:40:26;4.60;;;1.17;;
12725;SDS011;6427;49.754;6.106;2022-09-17T16:42:54;3.53;;;0.93;;
12725;SDS011;6427;49.754;6.106;2022-09-17T16:45:21;6.67;;;1.63;;
12725;SDS011;6427;49.754;6.106;2022-09-17T16:47:49;3.50;;;1.17;;
12725;SDS011;6427;49.754;6.106;2022-09-17T16:50:17;4.90;;;1.20;;
12725;SDS011;6427;49.754;6.106;2022-09-17T16:52:44;6.37;;;1.60;;
12725;SDS011;6427;49.754;6.106;2022-09-17T16:55:13;2.27;;;0.70;;
12725;SDS011;6427;49.754;6.106;2022-09-17T16:57:39;6.57;;;1.07;;
12725;SDS011;6427;49.754;6.106;2022-09-17T17:00:08;6.40;;;1.10;;
12725;SDS011;6427;49.754;6.106;2022-09-17T17:02:34;4.13;;;1.07;;
12725;SDS011;6427;49.754;6.106;2022-09-17T17:05:02;6.70;;;0.97;;
12725;SDS011;6427;49.754;6.106;2022-09-17T17:07:30;3.33;;;1.17;;
12725;SDS011;6427;49.754;6.106;2022-09-17T17:10:00;5.90;;;1.07;;
12725;SDS011;6427;49.754;6.106;2022-09-17T17:12:28;5.70;;;1.37;;
12725;SDS011;6427;49.754;6.106;2022-09-17T17:14:55;3.65;;;1.10;;
12725;SDS011;6427;49.754;6.106;2022-09-17T17:17:23;3.43;;;0.70;;
12725;SDS011;6427;49.754;6.106;2022-09-17T17:19:50;4.13;;;0.80;;
12725;SDS011;6427;49.754;6.106;2022-09-17T17:22:19;2.90;;;0.80;;
12725;SDS011;6427;49.754;6.106;2022-09-17T17:24:46;3.13;;;0.60;;
12725;SDS011;6427;49.754;6.106;2022-09-17T17:27:14;2.83;;;0.80;;
12725;SDS011;6427;49.754;6.106;2022-09-17T17:29:42;4.53;;;0.80;;
12725;SDS011;6427;49.754;6.106;2022-09-17T17:32:10;4.13;;;0.90;;
12725;SDS011;6427;49.754;6.106;2022-09-17T17:34:37;2.87;;;0.70;;
12725;SDS011;6427;49.754;6.106;2022-09-17T17:37:05;2.73;;;0.70;;
12725;SDS011;6427;49.754;6.106;2022-09-17T17:39:32;2.33;;;0.60;;
12725;SDS011;6427;49.754;6.106;2022-09-17T17:42:00;2.15;;;0.80;;
12725;SDS011;6427;49.754;6.106;2022-09-17T17:44:27;1.53;;;0.50;;